Bodmin Airfield


Codes: EGLA/
Name: Bodmin Airfield
City: Bodmin
Country: United Kingdom
Elevation: 650 ft.
Website:
Wikipedia:

Photos at Bodmin Airfield


   Photos courtesy of SpottingLog. You can add your own sightings and photos by signing up for a free trial today.



No photos found.

Weather at Bodmin Airfield


Time (UTC)DescriptionTempratureWindCloud coverageVisibilityPressureHumidity
15-Apr-2024 18:00Light Rain9°C25 mph, NW72%10000m1015hPa78%
15-Apr-2024 21:00Scattered Clouds8°C25 mph, NW36%10000m1016hPa75%
16-Apr-2024 00:00Scattered Clouds7°C25 mph, NW27%10000m1018hPa75%
16-Apr-2024 03:00Overcast Clouds7°C22 mph, NW92%10000m1018hPa77%
16-Apr-2024 06:00Overcast Clouds7°C18 mph, NW88%10000m1019hPa73%
16-Apr-2024 09:00Light Rain7°C16 mph, NW100%10000m1020hPa79%
16-Apr-2024 12:00Light Rain9°C18 mph, NW94%10000m1020hPa78%
16-Apr-2024 15:00Light Rain9°C18 mph, NW65%10000m1020hPa78%
16-Apr-2024 18:00Light Rain7°C11 mph, NW70%10000m1021hPa87%
16-Apr-2024 21:00Few Clouds4°C7 mph, NW17%10000m1022hPa93%
17-Apr-2024 00:00Few Clouds4°C7 mph, NW15%10000m1021hPa93%
17-Apr-2024 03:00Light Rain6°C13 mph, NW36%10000m1021hPa91%
17-Apr-2024 06:00Light Rain5°C13 mph, N64%10000m1021hPa84%
17-Apr-2024 09:00Light Rain7°C16 mph, N72%10000m1022hPa73%
17-Apr-2024 12:00Broken Clouds8°C16 mph, NW60%10000m1021hPa67%
17-Apr-2024 15:00Few Clouds9°C16 mph, NW22%10000m1021hPa69%
17-Apr-2024 18:00Scattered Clouds7°C9 mph, NW50%10000m1020hPa89%
17-Apr-2024 21:00Light Rain7°C2 mph, N100%10000m1020hPa97%
18-Apr-2024 00:00Overcast Clouds6°C2 mph, E93%10000m1020hPa97%
18-Apr-2024 03:00Overcast Clouds5°C2 mph, NE97%10000m1021hPa95%
18-Apr-2024 06:00Broken Clouds4°C2 mph, NE84%10000m1022hPa92%
18-Apr-2024 09:00Overcast Clouds9°C2 mph, E87%10000m1024hPa74%
18-Apr-2024 12:00Light Rain11°C2 mph, NW81%10000m1024hPa67%
18-Apr-2024 15:00Light Rain9°C2 mph, SW73%10000m1025hPa74%
18-Apr-2024 18:00Light Rain9°C4 mph, NW63%10000m1026hPa84%
18-Apr-2024 21:00Broken Clouds5°C2 mph, NW67%10000m1027hPa92%
19-Apr-2024 00:00Scattered Clouds4°C2 mph, W46%10000m1027hPa93%
19-Apr-2024 03:00Scattered Clouds5°C4 mph, W25%10000m1026hPa92%
19-Apr-2024 06:00Few Clouds6°C7 mph, W24%10000m1026hPa93%
19-Apr-2024 09:00Broken Clouds10°C13 mph, NW51%10000m1026hPa84%
19-Apr-2024 12:00Scattered Clouds12°C13 mph, NW48%10000m1026hPa75%
19-Apr-2024 15:00Few Clouds12°C13 mph, NW21%10000m1026hPa76%
19-Apr-2024 18:00Few Clouds10°C9 mph, N18%10000m1026hPa88%
19-Apr-2024 21:00Scattered Clouds7°C4 mph, NW31%10000m1027hPa95%
20-Apr-2024 00:00Broken Clouds9°C4 mph, NW60%10000m1027hPa96%
20-Apr-2024 03:00Overcast Clouds9°C4 mph, NW99%10000m1027hPa97%
20-Apr-2024 06:00Overcast Clouds9°C4 mph, NW99%10000m1027hPa96%
20-Apr-2024 09:00Light Rain12°C7 mph, NW100%10000m1028hPa83%
20-Apr-2024 12:00Overcast Clouds13°C9 mph, NW98%10000m1028hPa78%
20-Apr-2024 15:00Scattered Clouds14°C11 mph, NW30%10000m1027hPa78%